Time;durP1;ratioP1;P1;durP2;ratioP2;P2;SDS_P1;SDS_P2;PMS_P1;PMS_P2;Temp;Humidity;BMP_temperature;BMP_pressure;BME280_temperature;BME280_humidity;BME280_pressure;Samples;Min_cycle;Max_cycle;Signal;HPM_P1;HPM_P2
2021/12/07 00:01:59;;;;;;;1.60;1.60;;;;;;;0.74;64.46;100172.55;102751;1313;95582;-79
2021/12/07 00:04:28;;;;;;;1.70;1.70;;;;;;;0.72;64.15;100171.66;102636;1315;95397;-79
2021/12/07 00:06:56;;;;;;;1.50;1.50;;;;;;;0.78;64.50;100169.11;102584;1316;138294;-79
2021/12/07 00:09:24;;;;;;;1.40;1.40;;;;;;;0.83;64.08;100167.77;102458;1313;108986;-78
2021/12/07 00:11:52;;;;;;;1.50;1.50;;;;;;;0.80;64.25;100170.52;102464;1314;137589;-78
2021/12/07 00:14:24;;;;;;;1.70;1.70;;;;;;;0.80;64.78;100172.27;102533;1315;95804;-78
2021/12/07 00:16:54;;;;;;;1.60;1.60;;;;;;;0.82;64.49;100172.47;102399;1314;138020;-77
2021/12/07 00:19:22;;;;;;;1.60;1.60;;;;;;;0.87;63.82;100174.26;102638;1314;108874;-78
2021/12/07 00:21:51;;;;;;;1.40;1.40;;;;;;;0.87;64.38;100171.80;102743;1312;95276;-79
2021/12/07 00:24:19;;;;;;;1.70;1.70;;;;;;;0.87;64.30;100177.05;102427;1315;137644;-78
2021/12/07 00:26:47;;;;;;;1.70;1.70;;;;;;;0.92;64.29;100177.63;102508;1313;108779;-78
2021/12/07 00:29:16;;;;;;;1.40;1.40;;;;;;;0.86;64.20;100178.80;102513;1313;139308;-78
2021/12/07 00:31:54;;;;;;;1.50;1.50;;;;;;;0.90;64.47;100184.95;102706;1315;95254;-78
2021/12/07 00:37:01;;;;;;;1.60;1.60;;;;;;;0.94;64.42;100199.67;102355;1313;137889;-78
2021/12/07 00:39:29;;;;;;;1.60;1.60;;;;;;;0.84;63.77;100197.83;102385;1313;109837;-78
2021/12/07 00:41:59;;;;;;;1.50;1.50;;;;;;;0.78;64.35;100198.13;102545;1314;138155;-78
2021/12/07 00:44:27;;;;;;;1.80;1.80;;;;;;;0.90;64.42;100202.61;102597;1310;95794;-78
2021/12/07 00:46:56;;;;;;;1.60;1.60;;;;;;;0.96;64.31;100204.23;102560;1316;136938;-78
2021/12/07 00:49:24;;;;;;;1.60;1.60;;;;;;;0.98;64.14;100203.02;102430;1315;107778;-79
2021/12/07 00:51:52;;;;;;;1.50;1.50;;;;;;;0.95;64.22;100204.92;102692;1314;95441;-78
2021/12/07 00:54:20;;;;;;;1.90;1.90;;;;;;;0.98;64.10;100204.44;102385;1314;138022;-77
2021/12/07 00:56:49;;;;;;;1.60;1.60;;;;;;;1.05;63.87;100204.33;102694;1315;108284;-79
2021/12/07 00:59:17;;;;;;;1.50;1.50;;;;;;;1.10;63.79;100209.44;102596;1313;136974;-79
2021/12/07 01:01:45;;;;;;;1.50;1.50;;;;;;;1.14;63.75;100211.92;102703;1314;95246;-78
2021/12/07 01:04:13;;;;;;;1.70;1.70;;;;;;;1.17;63.69;100217.02;102577;1315;95272;-78
2021/12/07 01:06:48;;;;;;;1.80;1.80;;;;;;;1.12;63.53;100223.45;102522;1315;136533;-79
2021/12/07 01:25:47;;;;;;;1.60;1.60;;;;;;;1.02;63.42;100216.17;102661;1316;95657;-78
2021/12/07 01:31:49;;;;;;;1.70;1.70;;;;;;;1.01;63.15;100220.72;102528;1314;138103;-78
2021/12/07 01:36:43;;;;;;;1.60;1.60;;;;;;;0.69;63.80;100216.03;102319;1315;136310;-79
2021/12/07 01:45:56;;;;;;;1.70;1.70;;;;;;;0.69;64.63;100218.30;101807;1321;95469;-78
2021/12/07 02:01:54;;;;;;;1.80;1.80;;;;;;;0.23;63.92;100210.41;102518;1315;108427;-79
2021/12/07 02:04:23;;;;;;;1.80;1.80;;;;;;;0.03;64.17;100209.81;102394;1315;106429;-79
2021/12/07 02:06:53;;;;;;;1.70;1.70;;;;;;;0.08;65.27;100207.95;102555;1313;137223;-78
2021/12/07 02:09:22;;;;;;;1.70;1.70;;;;;;;0.23;64.93;100210.06;102846;1313;95320;-78
2021/12/07 02:11:57;;;;;;;1.90;1.90;;;;;;;0.10;64.15;100217.58;102195;1315;137880;-78
2021/12/07 02:14:27;;;;;;;1.70;1.70;;;;;;;0.05;64.40;100220.49;102499;1316;108802;-78
2021/12/07 02:16:57;;;;;;;1.80;1.80;;;;;;;-0.05;64.77;100223.85;102430;1315;138248;-78
2021/12/07 02:19:26;;;;;;;1.60;1.60;;;;;;;0.04;65.24;100229.73;102579;1315;95272;-78
2021/12/07 02:21:56;;;;;;;1.60;1.60;;;;;;;0.04;64.82;100234.26;102610;1315;107881;-78
2021/12/07 02:24:29;;;;;;;1.60;1.60;;;;;;;0.03;64.92;100234.26;102526;1313;137637;-78
2021/12/07 02:26:57;;;;;;;1.80;1.80;;;;;;;0.12;65.14;100234.19;102673;1313;95181;-77
2021/12/07 02:29:27;;;;;;;1.70;1.70;;;;;;;0.28;64.64;100235.63;102396;1315;137742;-78
2021/12/07 02:31:57;;;;;;;1.70;1.70;;;;;;;0.43;64.66;100231.10;102715;1316;105580;-78
2021/12/07 02:34:26;;;;;;;1.70;1.70;;;;;;;0.58;64.52;100226.20;102504;1316;109792;-79
2021/12/07 02:36:54;;;;;;;1.90;1.90;;;;;;;0.69;63.85;100215.67;102441;1314;137493;-79
2021/12/07 02:39:32;;;;;;;1.70;1.70;;;;;;;0.74;63.78;100211.19;102471;1313;95947;-78
2021/12/07 02:42:02;;;;;;;1.70;1.70;;;;;;;0.76;63.27;100210.86;102404;1315;138166;-78
2021/12/07 02:44:32;;;;;;;1.60;1.60;;;;;;;0.75;63.56;100210.84;102679;1316;109021;-79
2021/12/07 02:47:00;;;;;;;1.60;1.60;;;;;;;0.74;63.16;100213.98;102465;1315;137991;-78
2021/12/07 02:49:29;;;;;;;1.70;1.70;;;;;;;0.65;63.76;100217.21;102329;1315;95742;-79
2021/12/07 02:51:57;;;;;;;1.90;1.90;;;;;;;0.69;63.89;100218.81;102459;1315;107876;-78
2021/12/07 02:54:26;;;;;;;1.70;1.70;;;;;;;0.75;63.99;100218.52;102273;1314;137960;-79
2021/12/07 02:56:55;;;;;;;1.60;1.60;;;;;;;0.67;63.82;100220.55;102408;1317;95196;-79
2021/12/07 02:59:24;;;;;;;1.70;1.70;;;;;;;0.63;63.92;100220.14;102439;1316;137854;-79
2021/12/07 03:02:02;;;;;;;1.70;1.70;;;;;;;0.65;63.94;100218.42;102453;1315;108870;-79
2021/12/07 03:04:40;;;;;;;1.60;1.60;;;;;;;0.69;63.92;100210.61;102317;1318;109544;-78
2021/12/07 03:26:15;;;;;;;1.60;1.60;;;;;;;0.46;64.16;100210.52;102343;1317;109425;-78
2021/12/07 03:28:50;;;;;;;1.50;1.50;;;;;;;0.46;64.18;100210.87;102479;1314;95806;-79
2021/12/07 03:31:21;;;;;;;1.80;1.80;;;;;;;0.50;64.26;100209.88;102125;1316;137886;-79
2021/12/07 03:33:49;;;;;;;1.60;1.60;;;;;;;0.57;64.02;100209.08;102401;1314;107953;-78
2021/12/07 03:36:17;;;;;;;1.60;1.60;;;;;;;0.58;63.72;100207.52;102353;1315;138017;-77
2021/12/07 03:38:46;;;;;;;1.60;1.60;;;;;;;0.58;63.98;100209.77;102361;1315;95258;-77
2021/12/07 03:41:15;;;;;;;1.50;1.50;;;;;;;0.66;64.32;100207.09;102526;1314;138312;-79
2021/12/07 03:43:45;;;;;;;1.70;1.70;;;;;;;0.68;63.49;100204.65;102455;1314;107890;-79
2021/12/07 03:46:15;;;;;;;1.70;1.70;;;;;;;0.61;63.17;100207.38;102587;1315;108599;-78
2021/12/07 03:48:43;;;;;;;1.60;1.60;;;;;;;0.65;64.00;100203.58;102418;1316;138252;-79
2021/12/07 03:51:12;;;;;;;1.60;1.60;;;;;;;0.59;63.46;100211.38;102318;1316;95658;-78
2021/12/07 03:53:41;;;;;;;1.60;1.60;;;;;;;0.62;63.74;100213.85;102143;1316;138684;-78
2021/12/07 03:56:10;;;;;;;1.80;1.80;;;;;;;0.62;63.50;100212.98;102388;1315;108783;-79
2021/12/07 03:58:39;;;;;;;1.70;1.70;;;;;;;0.60;63.39;100216.61;102328;1316;95142;-78
2021/12/07 04:01:10;;;;;;;1.50;1.50;;;;;;;0.63;63.57;100223.64;102156;1314;138324;-80
2021/12/07 04:03:42;;;;;;;1.50;1.50;;;;;;;0.61;63.35;100222.58;102363;1315;109196;-78
2021/12/07 04:06:10;;;;;;;1.70;1.70;;;;;;;0.51;63.36;100224.38;101969;1316;137942;-78
2021/12/07 04:08:43;;;;;;;1.70;1.70;;;;;;;0.44;63.87;100227.62;102377;1315;95180;-78
2021/12/07 04:11:14;;;;;;;1.70;1.70;;;;;;;0.46;64.12;100229.56;102245;1317;138358;-78
2021/12/07 04:13:44;;;;;;;1.50;1.50;;;;;;;0.58;64.26;100234.77;102370;1314;107759;-78
2021/12/07 04:16:14;;;;;;;1.50;1.50;;;;;;;0.67;63.87;100235.21;102212;1317;108027;-77
2021/12/07 04:18:44;;;;;;;1.50;1.50;;;;;;;0.59;63.42;100237.40;102054;1316;139107;-78
2021/12/07 04:21:13;;;;;;;1.70;1.70;;;;;;;0.57;63.85;100238.77;102218;1317;95733;-78
2021/12/07 04:23:41;;;;;;;1.50;1.50;;;;;;;0.63;64.06;100243.56;102161;1315;137536;-78
2021/12/07 04:26:10;;;;;;;1.60;1.60;;;;;;;0.67;63.55;100250.25;102270;1318;107694;-78
2021/12/07 04:28:38;;;;;;;1.60;1.60;;;;;;;0.57;63.65;100251.35;102994;1316;95293;-78
2021/12/07 04:31:07;;;;;;;1.90;1.90;;;;;;;0.49;63.57;100251.42;102894;1313;136441;-79
2021/12/07 04:33:36;;;;;;;1.70;1.70;;;;;;;0.39;63.71;100250.79;102899;1314;107948;-78
2021/12/07 04:36:07;;;;;;;1.60;1.60;;;;;;;0.39;64.09;100249.39;102597;1315;137941;-78
2021/12/07 04:38:35;;;;;;;1.50;1.50;;;;;;;0.47;64.13;100249.84;102579;1315;95593;-79
2021/12/07 04:41:04;;;;;;;1.60;1.60;;;;;;;0.54;64.09;100249.91;102450;1315;136516;-79
2021/12/07 04:43:34;;;;;;;1.70;1.70;;;;;;;0.56;64.10;100245.39;102261;1316;107880;-79
2021/12/07 04:49:21;;;;;;;1.80;1.80;;;;;;;0.55;63.60;100240.48;102385;1315;138497;-78
2021/12/07 04:59:38;;;;;;;1.50;1.50;;;;;;;0.50;64.08;100255.81;102311;1316;138975;-79
2021/12/07 05:02:06;;;;;;;1.50;1.50;;;;;;;0.47;64.30;100257.00;102284;1317;95712;-78
2021/12/07 05:04:36;;;;;;;1.60;1.60;;;;;;;0.38;64.07;100261.42;102254;1316;107911;-79
2021/12/07 05:07:11;;;;;;;1.60;1.60;;;;;;;0.37;64.63;100261.22;102322;1315;138696;-79
2021/12/07 05:10:28;;;;;;;1.60;1.60;;;;;;;0.56;64.49;100260.95;102376;1316;95764;-79
2021/12/07 05:13:24;;;;;;;1.50;1.50;;;;;;;0.70;63.91;100263.39;102196;1316;137925;-78
2021/12/07 05:24:06;;;;;;;1.50;1.50;;;;;;;0.86;63.59;100269.85;102201;1315;137900;-79
2021/12/07 05:37:50;;;;;;;1.70;1.70;;;;;;;0.62;63.46;100278.84;102339;1315;107921;-78
2021/12/07 05:40:27;;;;;;;1.70;1.70;;;;;;;0.63;63.77;100280.94;102359;1314;108796;-78
2021/12/07 05:42:57;;;;;;;1.60;1.60;;;;;;;0.77;63.84;100284.79;102309;1315;138512;-78
2021/12/07 05:45:30;;;;;;;1.60;1.60;;;;;;;0.87;63.56;100279.64;102432;1314;95075;-78
2021/12/07 05:48:00;;;;;;;1.70;1.70;;;;;;;0.92;63.48;100276.21;102458;1315;136259;-78
2021/12/07 05:50:31;;;;;;;1.90;1.90;;;;;;;0.88;62.91;100282.29;102374;1315;108883;-78
2021/12/07 05:53:02;;;;;;;1.70;1.70;;;;;;;0.90;63.30;100278.46;102239;1315;138401;-78
2021/12/07 05:55:30;;;;;;;1.50;1.50;;;;;;;0.93;63.32;100276.58;102297;1315;95684;-78
2021/12/07 05:57:58;;;;;;;1.60;1.60;;;;;;;0.93;62.51;100277.28;102310;1315;106875;-78
2021/12/07 06:00:29;;;;;;;1.60;1.60;;;;;;;0.78;63.32;100274.48;102031;1314;136753;-78
2021/12/07 06:03:05;;;;;;;1.60;1.60;;;;;;;0.85;63.56;100274.21;102482;1316;95626;-78
2021/12/07 06:05:35;;;;;;;1.60;1.60;;;;;;;0.96;63.27;100272.41;102486;1314;138191;-78
2021/12/07 06:08:04;;;;;;;1.70;1.70;;;;;;;0.98;63.05;100268.92;102439;1314;107990;-78
2021/12/07 06:10:32;;;;;;;1.60;1.60;;;;;;;0.86;62.99;100270.73;102330;1318;109316;-78
2021/12/07 06:13:01;;;;;;;1.70;1.70;;;;;;;0.85;63.55;100269.84;101989;1315;138538;-78
2021/12/07 06:15:32;;;;;;;1.50;1.50;;;;;;;0.95;63.34;100273.10;102371;1315;95202;-78
2021/12/07 06:18:01;;;;;;;1.50;1.50;;;;;;;1.01;63.28;100278.94;102247;1315;138198;-78
2021/12/07 06:20:29;;;;;;;1.50;1.50;;;;;;;1.00;62.78;100279.09;102435;1315;109298;-79
2021/12/07 06:23:16;;;;;;;1.60;1.60;;;;;;;0.83;63.50;100280.48;102345;1318;136942;-78
2021/12/07 06:25:46;;;;;;;1.60;1.60;;;;;;;0.90;63.70;100278.83;102382;1316;95283;-78
2021/12/07 06:28:15;;;;;;;1.60;1.60;;;;;;;1.01;63.09;100276.84;102692;1313;105960;-79
2021/12/07 06:30:45;;;;;;;1.60;1.60;;;;;;;1.04;63.09;100276.86;102383;1316;138020;-79
2021/12/07 06:33:16;;;;;;;1.60;1.60;;;;;;;1.07;63.18;100280.05;102563;1312;95347;-79
2021/12/07 06:35:44;;;;;;;1.50;1.50;;;;;;;1.09;62.88;100279.36;102748;1315;138347;-78
2021/12/07 06:38:13;;;;;;;1.50;1.50;;;;;;;1.13;62.76;100285.88;102434;1318;107808;-79
2021/12/07 06:40:41;;;;;;;1.40;1.40;;;;;;;1.09;62.61;100287.41;102422;1315;108867;-78
2021/12/07 06:43:09;;;;;;;1.50;1.50;;;;;;;1.00;62.62;100288.55;102514;1315;138232;-79
2021/12/07 06:45:37;;;;;;;1.60;1.60;;;;;;;0.96;62.81;100290.59;102331;1316;95232;-78
2021/12/07 06:48:06;;;;;;;1.60;1.60;;;;;;;1.03;62.74;100289.45;102214;1317;137271;-78
2021/12/07 06:50:35;;;;;;;1.60;1.60;;;;;;;1.15;62.96;100290.61;102461;1314;108543;-78
2021/12/07 06:53:04;;;;;;;1.60;1.60;;;;;;;1.12;62.40;100290.41;102110;1317;137829;-78
2021/12/07 06:55:32;;;;;;;1.50;1.50;;;;;;;0.91;62.27;100295.97;102302;1315;96182;-78
2021/12/07 06:58:00;;;;;;;1.80;1.80;;;;;;;0.75;62.40;100301.55;102334;1313;107866;-78
2021/12/07 07:00:28;;;;;;;1.60;1.60;;;;;;;0.67;62.69;100303.02;102267;1315;138482;-78
2021/12/07 07:02:56;;;;;;;1.60;1.60;;;;;;;0.53;62.83;100291.31;102433;1315;95156;-78
2021/12/07 07:05:25;;;;;;;1.70;1.70;;;;;;;0.57;63.78;100297.13;102306;1315;138002;-77
2021/12/07 07:07:53;;;;;;;1.60;1.60;;;;;;;0.65;63.95;100296.88;102419;1314;108015;-78
2021/12/07 07:10:21;;;;;;;1.70;1.70;;;;;;;0.74;63.76;100300.84;102486;1318;109394;-78
2021/12/07 07:12:49;;;;;;;1.50;1.50;;;;;;;0.79;63.63;100302.63;102475;1313;138154;-78
2021/12/07 07:15:18;;;;;;;1.50;1.50;;;;;;;0.77;63.29;100305.58;102492;1315;95239;-79
2021/12/07 07:17:46;;;;;;;1.70;1.70;;;;;;;0.78;63.48;100302.10;102276;1316;137552;-79
2021/12/07 07:20:16;;;;;;;1.60;1.60;;;;;;;0.82;63.33;100301.98;102461;1319;109827;-78
2021/12/07 07:22:45;;;;;;;1.50;1.50;;;;;;;0.92;63.04;100301.91;102429;1317;95269;-78
2021/12/07 07:25:14;;;;;;;1.60;1.60;;;;;;;0.87;63.22;100306.91;102509;1315;137849;-79
2021/12/07 07:27:43;;;;;;;1.70;1.70;;;;;;;0.78;62.50;100313.11;102260;1316;107817;-78
2021/12/07 07:30:13;;;;;;;1.80;1.80;;;;;;;0.63;63.19;100313.11;102362;1313;138211;-79
2021/12/07 07:32:41;;;;;;;1.60;1.60;;;;;;;0.57;63.65;100315.83;102592;1316;96162;-78
2021/12/07 07:35:10;;;;;;;1.50;1.50;;;;;;;0.53;63.61;100321.36;102289;1316;138976;-79
2021/12/07 07:37:39;;;;;;;1.60;1.60;;;;;;;0.58;63.37;100316.36;102417;1311;108885;-79
2021/12/07 07:40:14;;;;;;;1.70;1.70;;;;;;;0.58;63.20;100323.34;102433;1315;110193;-79
2021/12/07 07:42:43;;;;;;;1.60;1.60;;;;;;;0.42;63.32;100326.44;102515;1314;137994;-79
2021/12/07 07:45:25;;;;;;;1.50;1.50;;;;;;;0.31;63.48;100324.90;102458;1315;95272;-80
2021/12/07 07:47:53;;;;;;;1.50;1.50;;;;;;;0.36;64.00;100330.03;102370;1316;138059;-79
2021/12/07 07:50:21;;;;;;;1.80;1.80;;;;;;;0.52;63.50;100326.05;102706;1316;108302;-79
2021/12/07 07:52:49;;;;;;;1.70;1.70;;;;;;;0.59;63.22;100325.45;102682;1313;95270;-79
2021/12/07 07:55:18;;;;;;;1.60;1.60;;;;;;;0.61;63.54;100327.23;102402;1313;137679;-79
2021/12/07 07:57:45;;;;;;;1.60;1.60;;;;;;;0.73;62.60;100334.19;102582;1316;108579;-79
2021/12/07 08:00:17;;;;;;;1.60;1.60;;;;;;;0.66;62.61;100335.14;102209;1314;137553;-80
2021/12/07 08:02:46;;;;;;;1.50;1.50;;;;;;;0.64;62.68;100332.34;102486;1317;95239;-79
2021/12/07 08:05:15;;;;;;;1.70;1.70;;;;;;;0.43;62.08;100330.30;102505;1312;137603;-79
2021/12/07 08:07:47;;;;;;;1.70;1.70;;;;;;;0.22;62.74;100332.28;102400;1315;108494;-80
2021/12/07 08:10:19;;;;;;;1.70;1.70;;;;;;;0.36;63.23;100336.85;102587;1315;110201;-79
2021/12/07 08:12:50;;;;;;;1.60;1.60;;;;;;;0.45;62.42;100336.80;102478;1317;137898;-79
2021/12/07 08:15:18;;;;;;;1.50;1.50;;;;;;;0.48;62.81;100333.86;102545;1314;95711;-79
2021/12/07 08:17:46;;;;;;;1.60;1.60;;;;;;;0.39;62.16;100332.34;102295;1316;137585;-79
2021/12/07 08:20:14;;;;;;;1.60;1.60;;;;;;;0.32;62.37;100334.86;102412;1315;107522;-79
2021/12/07 08:22:42;;;;;;;1.60;1.60;;;;;;;0.29;62.97;100341.98;102300;1315;95788;-79
2021/12/07 08:25:10;;;;;;;1.70;1.70;;;;;;;0.38;62.75;100343.16;102377;1317;137472;-79
2021/12/07 08:27:38;;;;;;;1.80;1.80;;;;;;;0.46;62.80;100352.19;102430;1314;108082;-79
2021/12/07 08:30:09;;;;;;;1.70;1.70;;;;;;;0.59;62.71;100352.02;102339;1315;139164;-78
2021/12/07 08:32:39;;;;;;;1.90;1.90;;;;;;;0.77;62.79;100356.77;102435;1315;94747;-79
2021/12/07 08:35:07;;;;;;;1.60;1.60;;;;;;;0.76;61.87;100363.41;102237;1315;139103;-78
2021/12/07 08:37:35;;;;;;;1.60;1.60;;;;;;;0.74;61.93;100363.90;102353;1309;106520;-79
2021/12/07 08:40:04;;;;;;;1.70;1.70;;;;;;;0.72;61.48;100367.39;102374;1315;108769;-78
2021/12/07 08:42:32;;;;;;;1.60;1.60;;;;;;;0.66;61.75;100369.39;102280;1315;137771;-79
2021/12/07 08:45:00;;;;;;;1.60;1.60;;;;;;;0.63;61.60;100372.85;102525;1314;95378;-79
2021/12/07 08:47:28;;;;;;;1.60;1.60;;;;;;;0.65;61.84;100378.48;102434;1314;137600;-79
2021/12/07 08:50:14;;;;;;;1.90;1.90;;;;;;;0.61;62.67;100375.45;102553;1315;109952;-79
2021/12/07 08:52:42;;;;;;;1.70;1.70;;;;;;;0.67;62.45;100374.83;102590;1314;94755;-78
2021/12/07 09:00:33;;;;;;;1.50;1.50;;;;;;;0.62;61.26;100375.45;102194;1315;138218;-78
2021/12/07 09:03:01;;;;;;;1.60;1.60;;;;;;;0.34;61.56;100378.04;102514;1315;97899;-79
2021/12/07 09:05:29;;;;;;;1.60;1.60;;;;;;;0.14;61.95;100382.25;102097;1316;136706;-79
2021/12/07 09:07:57;;;;;;;1.70;1.70;;;;;;;0.06;63.08;100382.66;102277;1316;108108;-80
2021/12/07 09:10:25;;;;;;;1.60;1.60;;;;;;;0.26;63.74;100381.22;102269;1316;108805;-79
2021/12/07 09:12:53;;;;;;;1.50;1.50;;;;;;;0.56;63.09;100382.54;102111;1316;137729;-79
2021/12/07 09:15:21;;;;;;;1.50;1.50;;;;;;;0.61;62.05;100387.48;102255;1317;96976;-79
2021/12/07 09:17:49;;;;;;;1.70;1.70;;;;;;;0.54;62.37;100391.60;102128;1315;137328;-79
2021/12/07 09:20:17;;;;;;;1.70;1.70;;;;;;;0.53;62.19;100389.83;102147;1317;108714;-79
2021/12/07 09:22:47;;;;;;;1.60;1.60;;;;;;;0.66;62.51;100387.58;102817;1314;95257;-79
2021/12/07 09:25:17;;;;;;;1.50;1.50;;;;;;;0.89;62.33;100388.23;102167;1317;138753;-79
2021/12/07 09:27:45;;;;;;;1.70;1.70;;;;;;;1.00;61.68;100389.06;102437;1315;108634;-79
2021/12/07 09:30:16;;;;;;;1.60;1.60;;;;;;;0.96;61.61;100386.04;102308;1314;137789;-79
2021/12/07 09:32:45;;;;;;;1.70;1.70;;;;;;;0.99;61.85;100383.11;102381;1317;95331;-80
2021/12/07 09:35:14;;;;;;;1.70;1.70;;;;;;;0.98;61.21;100380.66;102329;1314;137893;-79
2021/12/07 09:37:47;;;;;;;1.50;1.50;;;;;;;1.02;61.36;100377.20;102462;1314;107897;-79
2021/12/07 09:40:17;;;;;;;1.50;1.50;;;;;;;1.00;60.93;100378.39;102419;1314;106323;-78
2021/12/07 09:42:48;;;;;;;1.50;1.50;;;;;;;1.05;61.40;100380.73;102518;1317;138112;-79
2021/12/07 09:45:17;;;;;;;1.60;1.60;;;;;;;1.04;61.32;100378.98;102466;1316;96304;-79
2021/12/07 09:47:46;;;;;;;1.60;1.60;;;;;;;1.12;61.46;100380.63;102420;1315;140223;-78
2021/12/07 09:50:17;;;;;;;1.50;1.50;;;;;;;1.23;61.24;100377.44;102465;1315;109841;-79
2021/12/07 09:52:47;;;;;;;1.50;1.50;;;;;;;1.26;61.18;100376.42;102372;1317;95273;-79
2021/12/07 09:55:16;;;;;;;1.50;1.50;;;;;;;1.25;60.46;100378.52;102465;1314;137120;-79
2021/12/07 09:57:46;;;;;;;1.60;1.60;;;;;;;1.22;60.90;100376.02;102548;1315;108546;-78
2021/12/07 10:00:18;;;;;;;1.60;1.60;;;;;;;1.31;60.89;100375.09;102361;1315;137923;-79
2021/12/07 10:02:47;;;;;;;1.50;1.50;;;;;;;1.39;60.52;100375.16;102572;1315;95770;-79
2021/12/07 10:05:18;;;;;;;1.40;1.40;;;;;;;1.34;60.36;100367.94;102384;1315;138225;-80
2021/12/07 10:07:47;;;;;;;1.40;1.40;;;;;;;1.38;60.38;100370.95;102483;1317;107498;-80
2021/12/07 10:10:26;;;;;;;1.50;1.50;;;;;;;1.47;60.93;100371.05;102427;1317;107472;-79
2021/12/07 10:12:58;;;;;;;1.60;1.60;;;;;;;1.39;59.43;100371.67;102342;1317;138064;-79
2021/12/07 10:15:27;;;;;;;1.50;1.50;;;;;;;1.18;60.08;100370.40;102547;1315;95664;-79
2021/12/07 10:18:19;;;;;;;1.60;1.60;;;;;;;1.16;60.18;100367.75;102446;1314;137900;-79
2021/12/07 10:21:13;;;;;;;1.80;1.80;;;;;;;0.99;59.93;100360.02;102424;1315;108885;-79
2021/12/07 10:23:55;;;;;;;1.60;1.60;;;;;;;1.03;61.03;100361.82;102280;1316;138425;-79
2021/12/07 10:26:35;;;;;;;1.50;1.50;;;;;;;1.17;61.07;100363.04;102695;1317;95984;-78
2021/12/07 10:29:14;;;;;;;1.50;1.50;;;;;;;1.24;60.40;100362.77;102443;1316;138549;-79
2021/12/07 10:31:47;;;;;;;1.50;1.50;;;;;;;1.28;60.83;100359.31;102690;1314;109914;-79
2021/12/07 10:34:22;;;;;;;1.60;1.60;;;;;;;1.43;60.86;100357.19;102725;1315;95239;-79
2021/12/07 10:37:07;;;;;;;1.60;1.60;;;;;;;1.45;60.18;100353.70;102451;1315;137460;-79
2021/12/07 10:39:46;;;;;;;1.40;1.40;;;;;;;1.53;60.00;100350.65;102645;1315;107236;-79
2021/12/07 10:42:18;;;;;;;1.40;1.40;;;;;;;1.57;60.17;100347.88;102372;1314;138106;-79
2021/12/07 10:45:05;;;;;;;1.60;1.60;;;;;;;1.64;59.92;100348.80;102535;1312;95335;-78
2021/12/07 10:47:33;;;;;;;1.50;1.50;;;;;;;1.64;59.61;100352.15;102209;1316;137873;-79
2021/12/07 10:50:09;;;;;;;1.60;1.60;;;;;;;1.63;59.63;100354.23;102440;1318;106466;-79
2021/12/07 10:52:42;;;;;;;1.50;1.50;;;;;;;1.64;59.70;100350.92;102485;1317;108767;-79
2021/12/07 10:55:26;;;;;;;1.50;1.50;;;;;;;1.72;59.27;100354.50;102336;1315;138050;-79
2021/12/07 10:58:00;;;;;;;1.40;1.40;;;;;;;1.59;58.79;100353.50;102467;1315;95579;-79
2021/12/07 11:00:44;;;;;;;1.50;1.50;;;;;;;1.45;59.12;100360.35;102561;1315;137942;-79
2021/12/07 11:03:21;;;;;;;1.60;1.60;;;;;;;1.43;60.03;100357.55;102637;1316;108805;-80
2021/12/07 11:05:54;;;;;;;1.60;1.60;;;;;;;1.61;59.66;100350.55;102544;1315;138084;-79
2021/12/07 11:08:29;;;;;;;1.40;1.40;;;;;;;1.83;60.07;100345.13;102608;1315;95792;-79
2021/12/07 11:10:57;;;;;;;1.50;1.50;;;;;;;1.88;58.99;100345.02;102590;1318;106293;-79
2021/12/07 11:13:35;;;;;;;1.40;1.40;;;;;;;1.75;58.26;100336.13;102514;1315;136387;-79
2021/12/07 11:16:14;;;;;;;1.50;1.50;;;;;;;1.61;58.51;100335.50;102524;1315;95356;-79
2021/12/07 11:18:48;;;;;;;1.50;1.50;;;;;;;1.34;59.00;100339.60;102432;1315;138145;-79
2021/12/07 11:21:19;;;;;;;1.50;1.50;;;;;;;1.32;59.64;100342.73;102612;1315;107958;-80
2021/12/07 11:23:54;;;;;;;1.40;1.40;;;;;;;1.40;59.32;100348.58;102354;1316;138605;-79
2021/12/07 11:31:51;;;;;;;1.60;1.60;;;;;;;1.16;59.17;100346.95;102448;1315;137259;-80
2021/12/07 11:34:19;;;;;;;1.70;1.70;;;;;;;1.11;59.53;100348.97;102537;1315;108837;-79
2021/12/07 11:36:49;;;;;;;1.60;1.60;;;;;;;0.88;59.26;100353.61;102300;1316;138473;-78
2021/12/07 11:39:31;;;;;;;1.80;1.80;;;;;;;0.74;59.55;100359.90;102431;1316;95775;-79
2021/12/07 11:42:18;;;;;;;1.50;1.50;;;;;;;0.66;60.38;100363.63;102245;1314;137805;-78
2021/12/07 11:44:59;;;;;;;1.60;1.60;;;;;;;0.58;60.52;100364.23;102353;1315;109697;-78
2021/12/07 11:47:29;;;;;;;1.60;1.60;;;;;;;0.50;60.47;100365.86;102295;1316;137714;-79
2021/12/07 11:50:00;;;;;;;1.70;1.70;;;;;;;0.48;61.51;100367.94;102389;1315;95556;-78
2021/12/07 11:52:28;;;;;;;1.60;1.60;;;;;;;0.67;60.84;100373.77;102442;1316;107976;-79
2021/12/07 11:54:56;;;;;;;1.60;1.60;;;;;;;0.79;60.62;100375.50;102269;1314;137939;-79
2021/12/07 11:57:23;;;;;;;1.40;1.40;;;;;;;0.94;60.60;100377.10;102783;1315;95249;-79
2021/12/07 11:59:51;;;;;;;1.60;1.60;;;;;;;0.93;59.76;100381.63;102771;1315;137758;-79
2021/12/07 12:02:19;;;;;;;1.60;1.60;;;;;;;0.80;59.85;100387.41;102477;1315;108434;-80
2021/12/07 12:04:48;;;;;;;1.60;1.60;;;;;;;0.88;60.70;100381.92;102358;1315;108957;-79
2021/12/07 12:07:18;;;;;;;1.60;1.60;;;;;;;0.97;59.62;100383.77;102277;1314;138274;-80
2021/12/07 12:09:50;;;;;;;1.60;1.60;;;;;;;1.08;60.19;100382.34;102647;1315;95675;-79
2021/12/07 12:12:30;;;;;;;1.60;1.60;;;;;;;1.21;59.72;100383.71;102309;1317;137080;-79
2021/12/07 12:15:10;;;;;;;1.60;1.60;;;;;;;1.11;60.05;100381.84;102544;1315;108784;-79
2021/12/07 12:17:54;;;;;;;1.60;1.60;;;;;;;1.14;59.69;100386.61;102436;1317;136797;-78
2021/12/07 12:20:34;;;;;;;1.60;1.60;;;;;;;1.20;59.98;100389.83;102556;1314;95248;-79
2021/12/07 12:23:06;;;;;;;1.50;1.50;;;;;;;1.22;59.92;100390.20;102509;1316;107879;-79
2021/12/07 12:25:35;;;;;;;1.50;1.50;;;;;;;1.29;59.31;100391.16;102435;1314;138964;-78
2021/12/07 12:28:03;;;;;;;1.50;1.50;;;;;;;1.25;59.73;100390.58;102450;1314;95731;-79
2021/12/07 12:30:39;;;;;;;1.60;1.60;;;;;;;1.19;59.22;100390.15;102478;1315;137997;-79
2021/12/07 12:33:12;;;;;;;1.80;1.80;;;;;;;1.05;59.62;100391.58;102585;1314;107279;-79
2021/12/07 12:35:50;;;;;;;1.50;1.50;;;;;;;1.12;59.94;100393.58;102393;1315;138680;-79
2021/12/07 12:38:26;;;;;;;1.50;1.50;;;;;;;1.22;59.70;100397.02;102639;1315;95921;-78
2021/12/07 12:41:09;;;;;;;1.60;1.60;;;;;;;1.07;59.41;100398.42;102696;1315;95152;-79
2021/12/07 12:44:09;;;;;;;1.60;1.60;;;;;;;0.93;60.41;100401.03;102469;1315;137863;-78
2021/12/07 12:46:38;;;;;;;1.70;1.70;;;;;;;1.04;60.76;100397.33;102251;1319;109353;-80
2021/12/07 12:49:10;;;;;;;1.40;1.40;;;;;;;1.23;60.71;100396.16;102673;1314;137089;-78
2021/12/07 12:51:46;;;;;;;1.50;1.50;;;;;;;1.18;59.78;100397.50;102572;1314;95490;-79
2021/12/07 12:54:15;;;;;;;1.50;1.50;;;;;;;1.14;59.84;100397.28;102265;1318;137679;-79
2021/12/07 12:56:43;;;;;;;1.60;1.60;;;;;;;1.01;59.04;100401.84;102561;1315;108842;-79
2021/12/07 12:59:12;;;;;;;1.60;1.60;;;;;;;0.81;59.44;100400.88;102475;1316;95760;-78
2021/12/07 13:01:43;;;;;;;1.70;1.70;;;;;;;0.72;60.67;100395.52;102373;1315;137957;-80
2021/12/07 13:04:11;;;;;;;1.60;1.60;;;;;;;0.80;60.70;100399.11;102512;1315;107817;-78
2021/12/07 13:06:44;;;;;;;1.70;1.70;;;;;;;0.75;60.32;100404.46;102347;1316;139154;-79
2021/12/07 13:09:19;;;;;;;1.50;1.50;;;;;;;0.78;60.63;100404.34;102433;1315;95620;-80
2021/12/07 13:11:52;;;;;;;1.60;1.60;;;;;;;0.85;61.00;100407.40;102450;1314;138131;-79
2021/12/07 13:14:23;;;;;;;1.60;1.60;;;;;;;0.97;60.24;100411.58;102631;1315;108823;-79
2021/12/07 13:17:08;;;;;;;1.60;1.60;;;;;;;1.04;60.78;100407.47;102412;1314;108570;-78
2021/12/07 13:20:04;;;;;;;1.50;1.50;;;;;;;1.10;60.45;100405.09;102500;1317;138300;-78
2021/12/07 13:22:39;;;;;;;1.70;1.70;;;;;;;1.06;59.81;100407.31;102549;1315;95174;-79
2021/12/07 13:25:27;;;;;;;1.80;1.80;;;;;;;1.01;60.18;100406.90;102428;1316;136552;-80